Aviation Digital Data Service (ADDS)

Output produced by METARs form (0720 UTC 20 March 2019)
found at http://www.aviationweather.gov/metar/data/
 
METAR text: VLLB 200700Z 24004KT 9999 FEW027 36/10 Q1007 NOSIG
Conditions at: VLLB (LUANG-PRABANG , LA) observed 0700 UTC 20 March 2019
Temperature: 36.0°C (97°F)
Dewpoint: 10.0°C (50°F) [RH = 21%]
Pressure (altimeter): 29.73 inches Hg (1007.0 mb)
Winds: from the WSW (240 degrees) at 5 MPH (4 knots; 2.1 m/s)
Visibility: 6 or more miles (10+ km)
Ceiling: at least 12,000 feet AGL
Clouds: few clouds at 2700 feet AGL
Weather: no significant weather observed at this time

METAR text: VLLB 200600Z 27004KT 9999 FEW027 34/19 Q1009 NOSIG
Conditions at: VLLB (LUANG-PRABANG , LA) observed 0600 UTC 20 March 2019
Temperature: 34.0°C (93°F)
Dewpoint: 19.0°C (66°F) [RH = 41%]
Pressure (altimeter): 29.79 inches Hg (1009.0 mb)
Winds: from the W (270 degrees) at 5 MPH (4 knots; 2.1 m/s)
Visibility: 6 or more miles (10+ km)
Ceiling: at least 12,000 feet AGL
Clouds: few clouds at 2700 feet AGL
Weather: no significant weather observed at this time

METAR text: VLLB 200500Z 32004KT 9999 FEW027 32/20 Q1011 NOSIG
Conditions at: VLLB (LUANG-PRABANG , LA) observed 0500 UTC 20 March 2019
Temperature: 32.0°C (90°F)
Dewpoint: 20.0°C (68°F) [RH = 49%]
Pressure (altimeter): 29.85 inches Hg (1011.0 mb)
Winds: from the NW (320 degrees) at 5 MPH (4 knots; 2.1 m/s)
Visibility: 6 or more miles (10+ km)
Ceiling: at least 12,000 feet AGL
Clouds: few clouds at 2700 feet AGL
Weather: no significant weather observed at this time

METAR text: VLLB 200400Z 27004KT CAVOK 30/20 Q1012 NOSIG
Conditions at: VLLB (LUANG-PRABANG , LA) observed 0400 UTC 20 March 2019
Temperature: 30.0°C (86°F)
Dewpoint: 20.0°C (68°F) [RH = 55%]
Pressure (altimeter): 29.88 inches Hg (1012.0 mb)
Winds: from the W (270 degrees) at 5 MPH (4 knots; 2.1 m/s)
Visibility: 6 or more miles (10+ km)
Ceiling: ceiling and visibility are OK
Clouds: unknown
Weather: no significant weather observed at this time

METAR text: VLLB 200300Z 24002KT CAVOK 27/20 Q1012 NOSIG
Conditions at: VLLB (LUANG-PRABANG , LA) observed 0300 UTC 20 March 2019
Temperature: 27.0°C (81°F)
Dewpoint: 20.0°C (68°F) [RH = 66%]
Pressure (altimeter): 29.88 inches Hg (1012.0 mb)
Winds: from the WSW (240 degrees) at 2 MPH (2 knots; 1.0 m/s)
Visibility: 6 or more miles (10+ km)
Ceiling: ceiling and visibility are OK
Clouds: unknown
Weather: no significant weather observed at this time

METAR text: VLLB 200200Z 22002KT 5000 FU FEW020 FEW060 25/21 Q1012 NOSIG
Conditions at: VLLB (LUANG-PRABANG , LA) observed 0200 UTC 20 March 2019
Temperature: 25.0°C (77°F)
Dewpoint: 21.0°C (70°F) [RH = 79%]
Pressure (altimeter): 29.88 inches Hg (1012.0 mb)
Winds: from the SW (220 degrees) at 2 MPH (2 knots; 1.0 m/s)
Visibility: 3 miles ( 5 km)
Ceiling: at least 12,000 feet AGL
Clouds: few clouds at 2000 feet AGL
few clouds at 6000 feet AGL
Weather: FU  (smoke)

METAR text: VLLB 200100Z 18002KT 3000 FU SCT010 SCT060 23/21 Q1011 NOSIG
Conditions at: VLLB (LUANG-PRABANG , LA) observed 0100 UTC 20 March 2019
Temperature: 23.0°C (73°F)
Dewpoint: 21.0°C (70°F) [RH = 89%]
Pressure (altimeter): 29.85 inches Hg (1011.0 mb)
Winds: from the S (180 degrees) at 2 MPH (2 knots; 1.0 m/s)
Visibility: 1.86 miles (2.99 km)
Ceiling: at least 12,000 feet AGL
Clouds: scattered clouds at 1000 feet AGL
scattered clouds at 6000 feet AGL
Weather: FU  (smoke)

METAR text: VLLB 200000Z 04002KT 2000 FU SCT010 BKN060 21/20 Q1010 NOSIG
Conditions at: VLLB (LUANG-PRABANG , LA) observed 0000 UTC 20 March 2019
Temperature: 21.0°C (70°F)
Dewpoint: 20.0°C (68°F) [RH = 94%]
Pressure (altimeter): 29.82 inches Hg (1010.0 mb)
Winds: from the NE (40 degrees) at 2 MPH (2 knots; 1.0 m/s)
Visibility: 1.24 miles (2.00 km)
Ceiling: 6000 feet AGL
Clouds: scattered clouds at 1000 feet AGL
broken clouds at 6000 feet AGL
Weather: FU  (smoke)

METAR text: VLLB 191300Z 18004KT 9999 SCT017 BKN060 28/21 Q1008 NOSIG
Conditions at: VLLB (LUANG-PRABANG , LA) observed 1300 UTC 19 March 2019
Temperature: 28.0°C (82°F)
Dewpoint: 21.0°C (70°F) [RH = 66%]
Pressure (altimeter): 29.76 inches Hg (1008.0 mb)
Winds: from the S (180 degrees) at 5 MPH (4 knots; 2.1 m/s)
Visibility: 6 or more miles (10+ km)
Ceiling: 6000 feet AGL
Clouds: scattered clouds at 1700 feet AGL
broken clouds at 6000 feet AGL
Weather: no significant weather observed at this time

METAR text: VLLB 191200Z 14006KT 9999 SCT020 31/19 Q1007 NOSIG
Conditions at: VLLB (LUANG-PRABANG , LA) observed 1200 UTC 19 March 2019
Temperature: 31.0°C (88°F)
Dewpoint: 19.0°C (66°F) [RH = 49%]
Pressure (altimeter): 29.73 inches Hg (1007.0 mb)
Winds: from the SE (140 degrees) at 7 MPH (6 knots; 3.1 m/s)
Visibility: 6 or more miles (10+ km)
Ceiling: at least 12,000 feet AGL
Clouds: scattered clouds at 2000 feet AGL
Weather: no significant weather observed at this time

METAR text: VLLB 191100Z 14008KT 9999 SCT020 32/19 Q1006 NOSIG
Conditions at: VLLB (LUANG-PRABANG , LA) observed 1100 UTC 19 March 2019
Temperature: 32.0°C (90°F)
Dewpoint: 19.0°C (66°F) [RH = 46%]
Pressure (altimeter): 29.70 inches Hg (1006.0 mb)
Winds: from the SE (140 degrees) at 9 MPH (8 knots; 4.1 m/s)
Visibility: 6 or more miles (10+ km)
Ceiling: at least 12,000 feet AGL
Clouds: scattered clouds at 2000 feet AGL
Weather: no significant weather observed at this time

METAR text: VLLB 190900Z 32002KT 9999 SCT020 34/18 Q1006 NOSIG
Conditions at: VLLB (LUANG-PRABANG , LA) observed 0900 UTC 19 March 2019
Temperature: 34.0°C (93°F)
Dewpoint: 18.0°C (64°F) [RH = 39%]
Pressure (altimeter): 29.70 inches Hg (1006.0 mb)
Winds: from the NW (320 degrees) at 2 MPH (2 knots; 1.0 m/s)
Visibility: 6 or more miles (10+ km)
Ceiling: at least 12,000 feet AGL
Clouds: scattered clouds at 2000 feet AGL
Weather: no significant weather observed at this time

METAR text: VLLB 190800Z 12002KT 9999 SCT020 33/21 Q1007 NOSIG
Conditions at: VLLB (LUANG-PRABANG , LA) observed 0800 UTC 19 March 2019
Temperature: 33.0°C (91°F)
Dewpoint: 21.0°C (70°F) [RH = 49%]
Pressure (altimeter): 29.73 inches Hg (1007.0 mb)
Winds: from the ESE (120 degrees) at 2 MPH (2 knots; 1.0 m/s)
Visibility: 6 or more miles (10+ km)
Ceiling: at least 12,000 feet AGL
Clouds: scattered clouds at 2000 feet AGL
Weather: no significant weather observed at this time

METAR text: VLLB 190700Z 32002KT 9999 SCT020 32/20 Q1008 NOSIG
Conditions at: VLLB (LUANG-PRABANG , LA) observed 0700 UTC 19 March 2019
Temperature: 32.0°C (90°F)
Dewpoint: 20.0°C (68°F) [RH = 49%]
Pressure (altimeter): 29.76 inches Hg (1008.0 mb)
Winds: from the NW (320 degrees) at 2 MPH (2 knots; 1.0 m/s)
Visibility: 6 or more miles (10+ km)
Ceiling: at least 12,000 feet AGL
Clouds: scattered clouds at 2000 feet AGL
Weather: no significant weather observed at this time

METAR text: VLLB 190600Z 32002KT 9999 SCT020 30/17 Q1010 NOSIG
Conditions at: VLLB (LUANG-PRABANG , LA) observed 0600 UTC 19 March 2019
Temperature: 30.0°C (86°F)
Dewpoint: 17.0°C (63°F) [RH = 46%]
Pressure (altimeter): 29.82 inches Hg (1010.0 mb)
Winds: from the NW (320 degrees) at 2 MPH (2 knots; 1.0 m/s)
Visibility: 6 or more miles (10+ km)
Ceiling: at least 12,000 feet AGL
Clouds: scattered clouds at 2000 feet AGL
Weather: no significant weather observed at this time

METAR text: VLLB 190500Z 27002KT 9999 SCT017 SCT060 28/19 Q1012 NOSIG
Conditions at: VLLB (LUANG-PRABANG , LA) observed 0500 UTC 19 March 2019
Temperature: 28.0°C (82°F)
Dewpoint: 19.0°C (66°F) [RH = 58%]
Pressure (altimeter): 29.88 inches Hg (1012.0 mb)
Winds: from the W (270 degrees) at 2 MPH (2 knots; 1.0 m/s)
Visibility: 6 or more miles (10+ km)
Ceiling: at least 12,000 feet AGL
Clouds: scattered clouds at 1700 feet AGL
scattered clouds at 6000 feet AGL
Weather: no significant weather observed at this time

METAR text: VLLB 190400Z 09002KT 9999 SCT017 SCT060 27/20 Q1014 NOSIG
Conditions at: VLLB (LUANG-PRABANG , LA) observed 0400 UTC 19 March 2019
Temperature: 27.0°C (81°F)
Dewpoint: 20.0°C (68°F) [RH = 66%]
Pressure (altimeter): 29.94 inches Hg (1014.0 mb)
Winds: from the E (90 degrees) at 2 MPH (2 knots; 1.0 m/s)
Visibility: 6 or more miles (10+ km)
Ceiling: at least 12,000 feet AGL
Clouds: scattered clouds at 1700 feet AGL
scattered clouds at 6000 feet AGL
Weather: no significant weather observed at this time

METAR text: VLLB 190300Z 27002KT 9999 SCT017 SCT060 BKN080 24/18 Q1014 NOSIG
Conditions at: VLLB (LUANG-PRABANG , LA) observed 0300 UTC 19 March 2019
Temperature: 24.0°C (75°F)
Dewpoint: 18.0°C (64°F) [RH = 69%]
Pressure (altimeter): 29.94 inches Hg (1014.0 mb)
Winds: from the W (270 degrees) at 2 MPH (2 knots; 1.0 m/s)
Visibility: 6 or more miles (10+ km)
Ceiling: 8000 feet AGL
Clouds: scattered clouds at 1700 feet AGL
scattered clouds at 6000 feet AGL
broken clouds at 8000 feet AGL
Weather: no significant weather observed at this time

METAR text: VLLB 190200Z 24002KT 9999 SCT015 BKN060 22/17 Q1013 NOSIG
Conditions at: VLLB (LUANG-PRABANG , LA) observed 0200 UTC 19 March 2019
Temperature: 22.0°C (72°F)
Dewpoint: 17.0°C (63°F) [RH = 73%]
Pressure (altimeter): 29.91 inches Hg (1013.0 mb)
Winds: from the WSW (240 degrees) at 2 MPH (2 knots; 1.0 m/s)
Visibility: 6 or more miles (10+ km)
Ceiling: 6000 feet AGL
Clouds: scattered clouds at 1500 feet AGL
broken clouds at 6000 feet AGL
Weather: no significant weather observed at this time

METAR text: VLLB 190100Z 00000KT 8000 SCT018 FEW060 21/18 Q1013 NOSIG
Conditions at: VLLB (LUANG-PRABANG , LA) observed 0100 UTC 19 March 2019
Temperature: 21.0°C (70°F)
Dewpoint: 18.0°C (64°F) [RH = 83%]
Pressure (altimeter): 29.91 inches Hg (1013.0 mb)
Winds: calm
Visibility: 5 miles ( 8 km)
Ceiling: at least 12,000 feet AGL
Clouds: scattered clouds at 1800 feet AGL
few clouds at 6000 feet AGL
Weather: no significant weather observed at this time

Forecast for: VLLB (LUANG-PRABANG , LA)
Text: TAF VLLB 200500Z 2006/2106 27004KT 9999 FEW020
Forecast period: 0600 UTC 20 March 2019 to 0600 UTC 21 March 2019
Forecast type: FROM: standard forecast or significant change
Winds: from the W (270 degrees) at 5 MPH (4 knots; 2.1 m/s)
Visibility: 6 or more miles 10+ km)
Ceiling: at least 12,000 feet AGL
Clouds: few clouds at 2000 feet AGL
Weather: no significant weather forecast for this period
Text: TEMPO 2016/2022 3000 BR SCT010 BKN050
Forecast period: 1600 to 2200 UTC 20 March 2019
Forecast type: TEMPORARY: The following changes expected for less than half the time period
Visibility: 1.86 miles (2.99 km)
Ceiling: 5000 feet AGL
Clouds: scattered clouds at 1000 feet AGL
broken clouds at 5000 feet AGL
Weather: BR  (mist)